createdAt,value
2023-02-23T00:01:52.798Z,51.50
2023-02-23T00:04:20.980Z,51.00
2023-02-23T00:06:48.870Z,51.70
2023-02-23T00:09:23.174Z,51.07
2023-02-23T00:11:51.933Z,50.20
2023-02-23T00:14:19.951Z,52.63
2023-02-23T00:16:47.800Z,52.73
2023-02-23T00:19:17.585Z,51.10
2023-02-23T00:21:45.873Z,53.30
2023-02-23T00:24:15.609Z,53.80
2023-02-23T00:26:43.652Z,53.20
2023-02-23T00:29:16.641Z,51.43
2023-02-23T00:31:45.227Z,55.30
2023-02-23T00:34:15.067Z,53.17
2023-02-23T00:36:44.416Z,51.83
2023-02-23T00:39:21.585Z,49.00
2023-02-23T00:41:49.575Z,56.00
2023-02-23T00:44:17.536Z,53.67
2023-02-23T00:46:49.166Z,52.40
2023-02-23T00:49:16.948Z,54.30
2023-02-23T00:51:46.868Z,54.20
2023-02-23T00:54:16.137Z,53.13
2023-02-23T00:56:44.080Z,51.37
2023-02-23T00:59:12.793Z,52.20
2023-02-23T01:01:41.852Z,50.07
2023-02-23T01:04:10.724Z,49.97
2023-02-23T01:06:38.911Z,52.23
2023-02-23T01:09:10.464Z,52.17
2023-02-23T01:11:38.210Z,51.77
2023-02-23T01:14:06.106Z,52.40
2023-02-23T01:16:35.845Z,51.33
2023-02-23T01:19:05.535Z,51.93
2023-02-23T01:21:35.437Z,49.97
2023-02-23T01:24:03.765Z,52.17
2023-02-23T01:26:35.037Z,52.93
2023-02-23T01:29:05.573Z,51.57
2023-02-23T01:31:33.434Z,52.70
2023-02-23T01:34:02.566Z,53.23
2023-02-23T01:36:31.219Z,52.63
2023-02-23T01:39:00.167Z,53.60
2023-02-23T01:41:29.310Z,55.57
2023-02-23T01:44:00.229Z,54.20
2023-02-23T01:46:28.541Z,52.77
2023-02-23T01:48:57.330Z,52.87
2023-02-23T01:51:26.820Z,53.73
2023-02-23T01:53:59.023Z,55.20
2023-02-23T01:56:30.314Z,53.43
2023-02-23T01:59:01.326Z,54.17
2023-02-23T02:01:30.095Z,58.30
2023-02-23T02:03:59.258Z,56.43
2023-02-23T02:06:29.711Z,54.03
2023-02-23T02:09:06.214Z,55.40
2023-02-23T02:11:37.186Z,55.00
2023-02-23T02:14:13.160Z,57.10
2023-02-23T02:17:02.300Z,54.00
2023-02-23T02:20:00.550Z,54.67
2023-02-23T02:22:51.735Z,55.00
2023-02-23T02:25:37.257Z,54.30
2023-02-23T02:28:42.294Z,55.93
2023-02-23T02:31:36.744Z,56.23
2023-02-23T02:34:26.866Z,53.83
2023-02-23T02:37:22.510Z,56.23
2023-02-23T02:39:55.519Z,57.03
2023-02-23T02:42:29.586Z,55.87
2023-02-23T02:45:07.721Z,56.20
2023-02-23T02:47:39.450Z,56.73
2023-02-23T02:50:12.469Z,59.13
2023-02-23T02:52:44.440Z,59.23
2023-02-23T02:55:16.268Z,64.30
2023-02-23T02:57:46.808Z,58.63
2023-02-23T03:00:36.693Z,60.07
2023-02-23T03:03:21.889Z,60.10
2023-02-23T03:06:08.673Z,60.57
2023-02-23T03:09:01.711Z,61.93
2023-02-23T03:11:54.041Z,57.83
2023-02-23T03:14:47.030Z,58.40
2023-02-23T03:17:38.569Z,58.50
2023-02-23T03:20:30.772Z,60.97
2023-02-23T03:23:20.610Z,63.40
2023-02-23T03:26:13.679Z,63.10
2023-02-23T03:29:04.691Z,64.37
2023-02-23T03:31:56.740Z,59.10
2023-02-23T03:34:47.729Z,64.30
2023-02-23T03:37:37.312Z,66.70
2023-02-23T03:40:26.252Z,58.43
2023-02-23T03:43:14.690Z,61.53
2023-02-23T03:46:01.123Z,62.70
2023-02-23T03:48:46.539Z,59.10
2023-02-23T03:51:33.286Z,61.27
2023-02-23T03:54:21.977Z,63.97
2023-02-23T03:57:09.913Z,61.97
2023-02-23T04:00:00.198Z,63.17
2023-02-23T04:02:45.987Z,64.93
2023-02-23T04:05:34.854Z,64.53
2023-02-23T04:08:22.068Z,64.60
2023-02-23T04:11:09.738Z,66.40
2023-02-23T04:13:38.015Z,65.87
2023-02-23T04:16:08.486Z,62.47
2023-02-23T04:18:37.797Z,63.07
2023-02-23T04:21:07.017Z,64.50
2023-02-23T04:23:35.512Z,67.30
2023-02-23T04:26:05.221Z,63.47
2023-02-23T04:28:33.038Z,61.40
2023-02-23T04:31:00.803Z,62.73
2023-02-23T04:33:30.020Z,59.33
2023-02-23T04:35:57.792Z,62.43
2023-02-23T04:38:25.589Z,60.40
2023-02-23T04:40:53.329Z,59.07
2023-02-23T04:43:21.154Z,58.70
2023-02-23T04:45:49.233Z,60.60
2023-02-23T04:48:17.010Z,55.93
2023-02-23T04:50:46.247Z,57.00
2023-02-23T04:53:14.074Z,60.67
2023-02-23T04:55:42.138Z,62.83
2023-02-23T04:58:13.567Z,62.93
2023-02-23T05:00:41.640Z,58.47
2023-02-23T05:03:09.829Z,64.33
2023-02-23T05:05:37.638Z,62.10
2023-02-23T05:08:07.640Z,65.50
2023-02-23T05:10:35.654Z,63.70
2023-02-23T05:13:03.435Z,65.20
2023-02-23T05:15:31.320Z,63.37
2023-02-23T05:17:59.279Z,62.33
2023-02-23T05:20:27.000Z,62.17
2023-02-23T05:22:54.775Z,61.47
2023-02-23T05:25:24.018Z,62.50
2023-02-23T05:27:51.959Z,63.40
2023-02-23T05:30:19.978Z,65.63
2023-02-23T05:32:47.773Z,64.37
2023-02-23T05:35:15.659Z,63.50
2023-02-23T05:37:44.669Z,66.90
2023-02-23T05:40:13.632Z,68.53
2023-02-23T05:42:43.468Z,63.87
2023-02-23T05:45:11.507Z,69.50
2023-02-23T05:47:39.591Z,64.80
2023-02-23T05:50:09.038Z,64.20
2023-02-23T05:52:39.065Z,64.33
2023-02-23T05:55:07.849Z,66.93
2023-02-23T05:57:35.659Z,62.13
2023-02-23T06:00:07.092Z,63.40
2023-02-23T06:02:36.508Z,60.40
2023-02-23T06:05:06.033Z,65.30
2023-02-23T06:07:33.815Z,62.77
2023-02-23T06:10:01.618Z,58.97
2023-02-23T06:12:29.447Z,59.70
2023-02-23T06:14:57.212Z,59.43
2023-02-23T06:17:26.555Z,55.03
2023-02-23T06:19:54.350Z,57.00
2023-02-23T06:22:22.078Z,60.63
2023-02-23T06:24:51.117Z,55.77
2023-02-23T06:29:54.223Z,57.67
2023-02-23T06:32:22.149Z,59.00
2023-02-23T06:34:51.358Z,60.10
2023-02-23T06:37:19.149Z,59.00
2023-02-23T06:39:47.354Z,56.83
2023-02-23T06:42:15.385Z,58.43
2023-02-23T06:44:43.270Z,55.37
2023-02-23T06:47:11.320Z,57.00
2023-02-23T06:49:40.485Z,60.17
2023-02-23T06:52:09.964Z,60.20
2023-02-23T06:54:39.874Z,59.90
2023-02-23T06:57:08.046Z,55.90
2023-02-23T06:59:36.578Z,56.03
2023-02-23T07:02:04.772Z,60.47
2023-02-23T07:04:32.935Z,58.63
2023-02-23T07:07:01.211Z,57.90
2023-02-23T07:09:30.772Z,58.57
2023-02-23T07:11:58.551Z,57.47
2023-02-23T07:14:27.333Z,58.50
2023-02-23T07:16:55.292Z,62.20
2023-02-23T07:19:23.640Z,58.53
2023-02-23T07:21:51.543Z,57.60
2023-02-23T07:24:19.455Z,57.40
2023-02-23T07:26:49.686Z,61.37
2023-02-23T07:29:17.583Z,59.13
2023-02-23T07:31:45.480Z,58.90
2023-02-23T07:34:13.383Z,60.17
2023-02-23T07:36:42.206Z,61.70
2023-02-23T07:39:09.989Z,61.50
2023-02-23T07:41:37.790Z,62.27
2023-02-23T07:44:07.297Z,63.63
2023-02-23T07:46:35.009Z,64.03
2023-02-23T07:49:03.038Z,60.80
2023-02-23T07:51:30.832Z,62.73
2023-02-23T07:53:58.711Z,64.00
2023-02-23T07:56:27.515Z,60.53
2023-02-23T07:58:55.551Z,63.83
2023-02-23T08:01:24.970Z,64.03
2023-02-23T08:03:52.830Z,61.60
2023-02-23T08:06:21.036Z,59.90
2023-02-23T08:08:48.859Z,60.43
2023-02-23T08:11:17.005Z,58.10
2023-02-23T08:13:44.895Z,58.53
2023-02-23T08:16:12.654Z,57.43
2023-02-23T08:18:41.929Z,58.77
2023-02-23T08:21:09.795Z,57.50
2023-02-23T08:23:37.751Z,59.57
2023-02-23T08:26:05.995Z,60.50
2023-02-23T08:28:33.865Z,59.77
2023-02-23T08:31:01.846Z,59.63
2023-02-23T08:33:31.668Z,62.80
2023-02-23T08:36:02.830Z,58.57
2023-02-23T08:38:30.787Z,61.63
2023-02-23T08:41:01.712Z,60.63
2023-02-23T08:43:29.475Z,63.67
2023-02-23T08:45:57.299Z,63.70
2023-02-23T08:48:26.253Z,65.43
2023-02-23T08:50:57.756Z,65.60
2023-02-23T08:53:29.653Z,63.30
2023-02-23T08:55:58.821Z,68.00
2023-02-23T08:58:26.696Z,67.43
2023-02-23T09:00:54.601Z,70.20
2023-02-23T09:03:23.280Z,68.17
2023-02-23T09:05:51.224Z,67.87
2023-02-23T09:08:19.293Z,69.87
2023-02-23T09:10:48.591Z,69.77
2023-02-23T09:13:16.608Z,72.03
2023-02-23T09:15:44.600Z,68.73
2023-02-23T09:18:15.280Z,71.73
2023-02-23T09:20:44.156Z,72.30
2023-02-23T09:23:12.693Z,67.27
2023-02-23T09:25:43.276Z,71.87
2023-02-23T09:28:13.411Z,69.93
2023-02-23T09:30:42.236Z,75.23
2023-02-23T09:33:10.126Z,78.30
2023-02-23T09:35:38.197Z,74.57
2023-02-23T09:38:07.290Z,80.07
2023-02-23T09:40:39.235Z,74.13
2023-02-23T09:43:15.418Z,76.63
2023-02-23T09:45:44.481Z,78.30
2023-02-23T09:48:17.876Z,75.83
2023-02-23T09:50:49.093Z,71.87
2023-02-23T09:53:27.669Z,71.27
2023-02-23T09:55:57.443Z,74.00
2023-02-23T09:58:28.373Z,81.73
2023-02-23T10:01:27.111Z,75.40
2023-02-23T10:03:58.046Z,74.47
2023-02-23T10:06:25.987Z,80.13
2023-02-23T10:09:03.672Z,82.47
2023-02-23T10:11:38.720Z,81.30
2023-02-23T10:14:24.410Z,85.97
2023-02-23T10:17:01.313Z,85.87
2023-02-23T10:19:33.706Z,84.30
2023-02-23T10:22:04.719Z,84.73
2023-02-23T10:24:37.769Z,87.60
2023-02-23T10:27:11.558Z,88.17
2023-02-23T10:29:44.318Z,89.70
2023-02-23T10:32:21.012Z,90.63
2023-02-23T10:34:50.789Z,85.10
2023-02-23T10:37:19.080Z,87.73
2023-02-23T10:39:49.251Z,90.87
2023-02-23T10:42:19.107Z,89.23
2023-02-23T10:44:48.912Z,89.17
2023-02-23T10:47:19.192Z,84.37
2023-02-23T10:49:48.189Z,88.37
2023-02-23T10:52:18.450Z,91.17
2023-02-23T10:54:47.818Z,85.43
2023-02-23T10:57:24.731Z,88.17
2023-02-23T11:00:06.067Z,87.07
2023-02-23T11:02:36.475Z,87.27
2023-02-23T11:05:06.117Z,91.60
2023-02-23T11:07:34.884Z,87.90
2023-02-23T11:10:27.208Z,88.53
2023-02-23T11:12:55.265Z,85.87
2023-02-23T11:15:46.501Z,86.20
2023-02-23T11:18:22.532Z,82.60
2023-02-23T11:20:51.916Z,84.47
2023-02-23T11:23:23.775Z,86.37
2023-02-23T11:25:55.500Z,83.60
2023-02-23T11:28:28.745Z,85.80
2023-02-23T11:30:59.718Z,87.47
2023-02-23T11:33:31.530Z,90.10
2023-02-23T11:36:00.952Z,87.17
2023-02-23T11:38:32.397Z,89.60
2023-02-23T11:41:02.319Z,84.10
2023-02-23T11:43:31.888Z,86.20
2023-02-23T11:46:02.146Z,84.30
2023-02-23T11:48:32.627Z,82.03
2023-02-23T11:51:00.947Z,81.50
2023-02-23T11:53:31.584Z,77.57
2023-02-23T11:56:02.780Z,74.47
2023-02-23T11:58:37.070Z,78.60
2023-02-23T12:01:12.150Z,75.90
2023-02-23T12:03:47.803Z,76.60
2023-02-23T12:06:30.598Z,81.87
2023-02-23T12:09:03.812Z,80.53
2023-02-23T12:11:35.214Z,79.70
2023-02-23T12:14:06.654Z,81.10
2023-02-23T12:16:39.500Z,86.03
2023-02-23T12:19:19.963Z,82.80
2023-02-23T12:21:50.990Z,86.70
2023-02-23T12:24:24.001Z,82.70
2023-02-23T12:26:56.109Z,88.43
2023-02-23T12:29:30.798Z,80.33
2023-02-23T12:32:02.923Z,83.33
2023-02-23T12:34:34.422Z,81.97
2023-02-23T12:37:07.469Z,83.10
2023-02-23T12:39:37.953Z,83.90
2023-02-23T12:42:08.972Z,79.23
2023-02-23T12:44:42.681Z,80.57
2023-02-23T12:47:20.476Z,78.53
2023-02-23T12:49:53.430Z,81.37
2023-02-23T12:52:23.021Z,81.20
2023-02-23T12:54:50.845Z,83.27
2023-02-23T12:57:25.240Z,78.17
2023-02-23T13:00:24.703Z,82.43
2023-02-23T13:02:59.408Z,74.27
2023-02-23T13:05:28.675Z,78.17
2023-02-23T13:08:13.297Z,81.43
2023-02-23T13:10:47.339Z,79.63
2023-02-23T13:13:24.447Z,77.53
2023-02-23T13:16:00.227Z,80.97
2023-02-23T13:18:34.824Z,83.27
2023-02-23T13:21:08.432Z,75.90
2023-02-23T13:23:38.399Z,79.23
2023-02-23T13:26:13.140Z,79.17
2023-02-23T13:28:51.258Z,83.20
2023-02-23T13:31:25.308Z,83.87
2023-02-23T13:33:56.135Z,79.57
2023-02-23T13:36:24.562Z,80.87
2023-02-23T13:39:19.269Z,82.43
2023-02-23T13:41:54.235Z,78.97
2023-02-23T13:44:26.835Z,82.33
2023-02-23T13:47:01.528Z,82.53
2023-02-23T13:49:39.903Z,79.40
2023-02-23T13:52:18.322Z,79.83
2023-02-23T13:54:56.287Z,79.77
2023-02-23T13:57:24.565Z,81.03
2023-02-23T13:59:52.692Z,79.73
2023-02-23T14:02:37.134Z,76.03
2023-02-23T14:05:09.086Z,80.20
2023-02-23T14:07:41.111Z,75.97
2023-02-23T14:10:11.568Z,78.83
2023-02-23T14:12:42.390Z,82.47
2023-02-23T14:15:31.990Z,81.00
2023-02-23T14:18:00.662Z,78.10
2023-02-23T14:20:45.865Z,77.73
2023-02-23T14:23:28.158Z,76.70
2023-02-23T14:26:12.820Z,78.60
2023-02-23T14:28:42.470Z,70.10
2023-02-23T14:31:23.235Z,76.90
2023-02-23T14:33:55.735Z,74.37
2023-02-23T14:36:45.038Z,74.80
2023-02-23T14:39:20.047Z,76.80
2023-02-23T14:41:51.138Z,77.07
2023-02-23T14:44:29.974Z,80.03
2023-02-23T14:47:03.682Z,73.80
2023-02-23T14:49:35.014Z,78.80
2023-02-23T14:52:08.904Z,75.03
2023-02-23T14:54:38.512Z,75.93
2023-02-23T14:57:07.943Z,76.50
2023-02-23T14:59:40.265Z,74.13
2023-02-23T15:02:12.598Z,73.57
2023-02-23T15:04:40.462Z,75.57
2023-02-23T15:07:18.607Z,78.20
2023-02-23T15:09:48.017Z,75.60
2023-02-23T15:12:17.994Z,73.07
2023-02-23T15:14:47.509Z,75.03
2023-02-23T15:17:18.131Z,74.37
2023-02-23T15:19:46.564Z,77.10
2023-02-23T15:22:25.744Z,72.70
2023-02-23T15:24:53.588Z,72.87
2023-02-23T15:27:27.200Z,78.73
2023-02-23T15:29:55.415Z,76.30
2023-02-23T15:32:25.415Z,71.00
2023-02-23T15:34:55.431Z,72.60
2023-02-23T15:37:31.024Z,78.63
2023-02-23T15:40:00.867Z,81.93
2023-02-23T15:42:33.295Z,80.97
2023-02-23T15:45:02.837Z,77.20
2023-02-23T15:47:34.464Z,79.93
2023-02-23T15:50:07.478Z,76.13
2023-02-23T15:52:44.098Z,79.50
2023-02-23T15:55:24.888Z,80.43
2023-02-23T15:57:58.917Z,79.47
2023-02-23T16:00:33.573Z,77.77
2023-02-23T16:03:02.974Z,82.97
2023-02-23T16:05:46.508Z,80.43
2023-02-23T16:08:24.178Z,78.70
2023-02-23T16:10:55.058Z,81.00
2023-02-23T16:13:23.346Z,81.97
2023-02-23T16:15:52.638Z,82.07
2023-02-23T16:18:24.069Z,82.13
2023-02-23T16:20:56.152Z,78.57
2023-02-23T16:23:34.171Z,78.37
2023-02-23T16:26:10.127Z,79.40
2023-02-23T16:28:43.141Z,79.77
2023-02-23T16:31:13.932Z,80.10
2023-02-23T16:33:43.656Z,79.17
2023-02-23T16:36:19.838Z,80.87
2023-02-23T16:38:59.062Z,80.30
2023-02-23T16:41:28.198Z,84.57
2023-02-23T16:43:58.457Z,80.90
2023-02-23T16:46:30.021Z,83.60
2023-02-23T16:49:10.300Z,79.57
2023-02-23T16:51:38.330Z,79.53
2023-02-23T16:54:08.679Z,78.03
2023-02-23T16:56:37.096Z,83.53
2023-02-23T16:59:05.674Z,78.80
2023-02-23T17:01:33.680Z,82.80
2023-02-23T17:04:02.664Z,80.93
2023-02-23T17:06:30.443Z,81.40
2023-02-23T17:08:58.719Z,82.93
2023-02-23T17:11:28.120Z,83.77
2023-02-23T17:13:56.206Z,82.67
2023-02-23T17:16:24.492Z,86.93
2023-02-23T17:18:52.459Z,85.77
2023-02-23T17:21:23.741Z,83.27
2023-02-23T17:23:53.138Z,84.90
2023-02-23T17:26:23.176Z,89.37
2023-02-23T17:28:54.051Z,87.00
2023-02-23T17:31:24.184Z,84.20
2023-02-23T17:33:55.227Z,87.23
2023-02-23T17:36:23.879Z,91.60
2023-02-23T17:38:58.464Z,89.23
2023-02-23T17:41:29.818Z,91.27
2023-02-23T17:44:00.802Z,93.27
2023-02-23T17:46:29.935Z,90.67
2023-02-23T17:48:57.819Z,91.00
2023-02-23T17:51:25.799Z,87.30
2023-02-23T17:53:53.694Z,89.07
2023-02-23T17:56:23.645Z,88.70
2023-02-23T17:58:51.550Z,82.00
2023-02-23T18:01:21.305Z,86.27
2023-02-23T18:03:50.965Z,84.80
2023-02-23T18:06:19.750Z,82.67
2023-02-23T18:08:47.671Z,78.87
2023-02-23T18:11:18.650Z,76.03
2023-02-23T18:13:48.097Z,73.13
2023-02-23T18:16:16.295Z,72.27
2023-02-23T18:18:47.823Z,73.83
2023-02-23T18:21:17.723Z,69.20
2023-02-23T18:23:45.798Z,72.90
2023-02-23T18:26:15.531Z,74.37
2023-02-23T18:28:50.525Z,70.03
2023-02-23T18:31:20.908Z,72.73
2023-02-23T18:33:53.075Z,71.63
2023-02-23T18:36:22.948Z,74.37
2023-02-23T18:38:51.016Z,71.50
2023-02-23T18:41:19.835Z,70.10
2023-02-23T18:43:48.129Z,70.80
2023-02-23T18:46:16.771Z,70.37
2023-02-23T18:48:44.740Z,70.27
2023-02-23T18:51:14.658Z,68.57
2023-02-23T18:53:44.518Z,69.30
2023-02-23T18:56:13.813Z,67.90
2023-02-23T18:58:42.073Z,65.83
2023-02-23T19:01:13.366Z,65.70
2023-02-23T19:03:41.606Z,62.57
2023-02-23T19:06:11.487Z,66.17
2023-02-23T19:08:42.225Z,64.77
2023-02-23T19:11:10.515Z,66.00
2023-02-23T19:13:38.973Z,67.20
2023-02-23T19:16:08.520Z,66.70
2023-02-23T19:18:37.096Z,68.37
2023-02-23T19:21:07.619Z,68.53
2023-02-23T19:23:36.072Z,68.00
2023-02-23T19:26:06.018Z,69.53
2023-02-23T19:28:33.924Z,70.97
2023-02-23T19:31:03.312Z,69.37
2023-02-23T19:33:31.355Z,70.30
2023-02-23T19:36:00.884Z,67.43
2023-02-23T19:38:28.794Z,67.90
2023-02-23T19:40:58.124Z,70.73
2023-02-23T19:43:27.405Z,66.90
2023-02-23T19:45:55.451Z,69.77
2023-02-23T19:48:25.290Z,65.47
2023-02-23T19:50:54.784Z,70.27
2023-02-23T19:53:22.618Z,69.60
2023-02-23T19:55:59.802Z,68.97
2023-02-23T19:58:29.170Z,71.10
2023-02-23T20:00:57.642Z,72.70
2023-02-23T20:03:28.206Z,70.03
2023-02-23T20:05:57.051Z,74.37
2023-02-23T20:08:25.395Z,72.13
2023-02-23T20:10:53.663Z,72.20
2023-02-23T20:13:23.620Z,69.43
2023-02-23T20:16:01.448Z,66.17
2023-02-23T20:18:29.425Z,67.93
2023-02-23T20:20:57.430Z,73.20
2023-02-23T20:23:25.273Z,73.43
2023-02-23T20:25:53.083Z,71.63
2023-02-23T20:28:20.862Z,71.00
2023-02-23T20:30:49.118Z,73.20
2023-02-23T20:33:18.304Z,69.43
2023-02-23T20:35:46.098Z,73.87
2023-02-23T20:38:14.163Z,74.83
2023-02-23T20:40:42.101Z,71.77
2023-02-23T20:43:10.014Z,69.80
2023-02-23T20:45:39.881Z,69.57
2023-02-23T20:48:09.629Z,67.67
2023-02-23T20:50:39.117Z,67.20
2023-02-23T20:53:08.370Z,67.40
2023-02-23T20:55:36.387Z,75.20
2023-02-23T20:58:06.827Z,74.87
2023-02-23T21:00:34.706Z,75.23
2023-02-23T21:03:03.681Z,70.00
2023-02-23T21:05:34.117Z,67.97
2023-02-23T21:08:05.652Z,66.73
2023-02-23T21:10:35.606Z,62.60
2023-02-23T21:13:03.992Z,60.10
2023-02-23T21:15:32.449Z,59.87
2023-02-23T21:18:00.354Z,56.50
2023-02-23T21:20:28.696Z,54.57
2023-02-23T21:22:57.165Z,53.17
2023-02-23T21:25:28.442Z,53.40
2023-02-23T21:27:56.442Z,51.80
2023-02-23T21:30:28.529Z,48.47
2023-02-23T21:32:57.474Z,46.70
2023-02-23T21:35:25.504Z,47.87
2023-02-23T21:37:53.729Z,43.37
2023-02-23T21:40:22.237Z,45.80
2023-02-23T21:42:52.065Z,45.17
2023-02-23T21:45:20.434Z,42.33
2023-02-23T21:47:49.349Z,40.30
2023-02-23T21:50:19.183Z,41.87
2023-02-23T21:52:48.744Z,42.23
2023-02-23T21:55:22.136Z,42.77
2023-02-23T21:57:52.189Z,41.23
2023-02-23T22:00:20.990Z,41.93
2023-02-23T22:02:49.085Z,40.03
2023-02-23T22:05:17.726Z,42.13
2023-02-23T22:07:49.034Z,39.67
2023-02-23T22:10:17.743Z,40.57
2023-02-23T22:12:45.538Z,40.87
2023-02-23T22:15:16.730Z,40.13
2023-02-23T22:17:44.867Z,37.20
2023-02-23T22:20:13.503Z,38.73
2023-02-23T22:22:42.896Z,38.63
2023-02-23T22:25:11.446Z,37.73
2023-02-23T22:27:41.554Z,36.63
2023-02-23T22:30:12.189Z,36.17
2023-02-23T22:32:42.612Z,37.67
2023-02-23T22:35:11.144Z,35.63
2023-02-23T22:37:39.556Z,36.70
2023-02-23T22:40:13.708Z,39.53
2023-02-23T22:42:43.401Z,39.70
2023-02-23T22:45:12.003Z,41.53
2023-02-23T22:47:41.194Z,40.37
2023-02-23T22:50:12.022Z,40.23
2023-02-23T22:52:40.204Z,36.87
2023-02-23T22:55:09.122Z,37.80
2023-02-23T22:57:36.955Z,37.83
2023-02-23T23:00:10.226Z,35.00
2023-02-23T23:02:38.103Z,32.53
2023-02-23T23:05:08.793Z,33.73
2023-02-23T23:07:36.793Z,31.90
2023-02-23T23:10:05.750Z,30.77
2023-02-23T23:12:34.428Z,29.87
2023-02-23T23:15:02.988Z,31.90
2023-02-23T23:17:31.033Z,28.97
2023-02-23T23:20:00.236Z,27.40
2023-02-23T23:22:29.375Z,27.83
2023-02-23T23:24:57.239Z,26.60
2023-02-23T23:27:25.393Z,27.83
2023-02-23T23:29:53.207Z,26.00
2023-02-23T23:32:27.503Z,27.97
2023-02-23T23:34:57.345Z,30.37
2023-02-23T23:37:29.052Z,32.17
2023-02-23T23:40:00.263Z,31.03
2023-02-23T23:42:28.266Z,34.07
2023-02-23T23:44:57.009Z,33.53
2023-02-23T23:47:26.099Z,32.07
2023-02-23T23:49:54.678Z,33.53
2023-02-23T23:52:22.577Z,29.67
2023-02-23T23:54:50.644Z,26.97
2023-02-23T23:57:19.933Z,29.17
2023-02-23T23:59:48.883Z,27.10
